sensor_id;sensor_type;location;lat;lon;timestamp;P1;durP1;ratioP1;P2;durP2;ratioP2
58083;SDS011;43882;51.550;11.858;2023-03-01T00:01:26;28.67;;;11.05;;
58083;SDS011;43882;51.550;11.858;2023-03-01T00:03:53;26.92;;;11.32;;
58083;SDS011;43882;51.550;11.858;2023-03-01T00:06:20;27.58;;;11.85;;
58083;SDS011;43882;51.550;11.858;2023-03-01T00:08:47;27.70;;;11.23;;
58083;SDS011;43882;51.550;11.858;2023-03-01T00:11:24;27.90;;;11.45;;
58083;SDS011;43882;51.550;11.858;2023-03-01T00:13:53;25.63;;;10.52;;
58083;SDS011;43882;51.550;11.858;2023-03-01T00:16:25;28.95;;;11.02;;
58083;SDS011;43882;51.550;11.858;2023-03-01T00:18:56;25.40;;;11.10;;
58083;SDS011;43882;51.550;11.858;2023-03-01T00:21:22;26.58;;;10.63;;
58083;SDS011;43882;51.550;11.858;2023-03-01T00:23:49;27.58;;;11.73;;
58083;SDS011;43882;51.550;11.858;2023-03-01T00:26:16;26.80;;;10.13;;
58083;SDS011;43882;51.550;11.858;2023-03-01T00:28:43;27.58;;;11.10;;
58083;SDS011;43882;51.550;11.858;2023-03-01T00:31:14;25.80;;;9.80;;
58083;SDS011;43882;51.550;11.858;2023-03-01T00:33:42;25.92;;;9.30;;
58083;SDS011;43882;51.550;11.858;2023-03-01T00:36:08;25.50;;;10.18;;
58083;SDS011;43882;51.550;11.858;2023-03-01T00:38:35;25.80;;;10.48;;
58083;SDS011;43882;51.550;11.858;2023-03-01T00:41:04;27.42;;;10.63;;
58083;SDS011;43882;51.550;11.858;2023-03-01T00:43:34;31.83;;;12.75;;
58083;SDS011;43882;51.550;11.858;2023-03-01T00:46:23;30.88;;;12.48;;
58083;SDS011;43882;51.550;11.858;2023-03-01T00:48:48;28.27;;;11.90;;
58083;SDS011;43882;51.550;11.858;2023-03-01T00:51:19;29.00;;;12.43;;
58083;SDS011;43882;51.550;11.858;2023-03-01T00:53:50;29.83;;;12.27;;
58083;SDS011;43882;51.550;11.858;2023-03-01T00:56:18;29.90;;;12.55;;
58083;SDS011;43882;51.550;11.858;2023-03-01T00:58:44;28.77;;;12.65;;
58083;SDS011;43882;51.550;11.858;2023-03-01T01:01:14;28.35;;;12.27;;
58083;SDS011;43882;51.550;11.858;2023-03-01T01:03:48;27.58;;;11.68;;
58083;SDS011;43882;51.550;11.858;2023-03-01T01:06:23;26.73;;;11.70;;
58083;SDS011;43882;51.550;11.858;2023-03-01T01:08:51;29.75;;;11.27;;
58083;SDS011;43882;51.550;11.858;2023-03-01T01:11:17;28.52;;;11.85;;
58083;SDS011;43882;51.550;11.858;2023-03-01T01:13:45;25.98;;;10.07;;
58083;SDS011;43882;51.550;11.858;2023-03-01T01:16:11;25.95;;;10.98;;
58083;SDS011;43882;51.550;11.858;2023-03-01T01:18:38;27.48;;;10.98;;
58083;SDS011;43882;51.550;11.858;2023-03-01T01:21:06;28.73;;;10.90;;
58083;SDS011;43882;51.550;11.858;2023-03-01T01:23:33;24.30;;;10.02;;
58083;SDS011;43882;51.550;11.858;2023-03-01T01:26:07;26.20;;;10.07;;
58083;SDS011;43882;51.550;11.858;2023-03-01T01:28:39;24.92;;;10.23;;
58083;SDS011;43882;51.550;11.858;2023-03-01T01:31:06;25.00;;;10.40;;
58083;SDS011;43882;51.550;11.858;2023-03-01T01:33:32;24.70;;;10.55;;
58083;SDS011;43882;51.550;11.858;2023-03-01T01:35:59;26.55;;;10.18;;
58083;SDS011;43882;51.550;11.858;2023-03-01T01:38:25;23.77;;;10.07;;
58083;SDS011;43882;51.550;11.858;2023-03-01T01:40:51;23.35;;;9.73;;
58083;SDS011;43882;51.550;11.858;2023-03-01T01:43:19;23.50;;;9.32;;
58083;SDS011;43882;51.550;11.858;2023-03-01T01:45:45;24.67;;;9.82;;
58083;SDS011;43882;51.550;11.858;2023-03-01T01:48:12;30.13;;;11.05;;
58083;SDS011;43882;51.550;11.858;2023-03-01T01:50:41;26.85;;;10.73;;
58083;SDS011;43882;51.550;11.858;2023-03-01T01:53:11;28.10;;;11.07;;
58083;SDS011;43882;51.550;11.858;2023-03-01T01:55:41;28.15;;;11.25;;
58083;SDS011;43882;51.550;11.858;2023-03-01T01:58:10;25.95;;;9.98;;
58083;SDS011;43882;51.550;11.858;2023-03-01T02:00:39;27.52;;;10.40;;
58083;SDS011;43882;51.550;11.858;2023-03-01T02:03:13;25.70;;;10.00;;
58083;SDS011;43882;51.550;11.858;2023-03-01T02:08:35;22.60;;;8.95;;
58083;SDS011;43882;51.550;11.858;2023-03-01T02:11:03;25.90;;;10.98;;
58083;SDS011;43882;51.550;11.858;2023-03-01T02:13:30;26.17;;;10.20;;
58083;SDS011;43882;51.550;11.858;2023-03-01T02:15:57;25.52;;;10.88;;
58083;SDS011;43882;51.550;11.858;2023-03-01T02:18:23;23.13;;;10.05;;
58083;SDS011;43882;51.550;11.858;2023-03-01T02:23:30;29.00;;;12.00;;
58083;SDS011;43882;51.550;11.858;2023-03-01T02:26:11;27.42;;;11.18;;
58083;SDS011;43882;51.550;11.858;2023-03-01T02:28:49;27.73;;;10.50;;
58083;SDS011;43882;51.550;11.858;2023-03-01T02:31:17;30.48;;;12.30;;
58083;SDS011;43882;51.550;11.858;2023-03-01T02:34:04;30.17;;;12.73;;
58083;SDS011;43882;51.550;11.858;2023-03-01T02:36:35;31.23;;;12.68;;
58083;SDS011;43882;51.550;11.858;2023-03-01T02:39:06;29.60;;;12.27;;
58083;SDS011;43882;51.550;11.858;2023-03-01T02:41:39;32.85;;;13.35;;
58083;SDS011;43882;51.550;11.858;2023-03-01T02:44:09;29.38;;;12.63;;
58083;SDS011;43882;51.550;11.858;2023-03-01T02:46:41;30.77;;;11.88;;
58083;SDS011;43882;51.550;11.858;2023-03-01T02:49:30;31.33;;;12.52;;
58083;SDS011;43882;51.550;11.858;2023-03-01T02:57:34;27.73;;;11.55;;
58083;SDS011;43882;51.550;11.858;2023-03-01T03:00:04;28.55;;;11.95;;
58083;SDS011;43882;51.550;11.858;2023-03-01T03:02:33;29.00;;;11.43;;
58083;SDS011;43882;51.550;11.858;2023-03-01T03:05:03;28.25;;;11.55;;
58083;SDS011;43882;51.550;11.858;2023-03-01T03:07:31;29.48;;;11.70;;
58083;SDS011;43882;51.550;11.858;2023-03-01T03:09:59;29.48;;;11.30;;
58083;SDS011;43882;51.550;11.858;2023-03-01T03:12:26;25.67;;;9.93;;
58083;SDS011;43882;51.550;11.858;2023-03-01T03:14:52;26.40;;;9.68;;
58083;SDS011;43882;51.550;11.858;2023-03-01T03:17:18;28.63;;;11.32;;
58083;SDS011;43882;51.550;11.858;2023-03-01T03:19:44;27.48;;;10.50;;
58083;SDS011;43882;51.550;11.858;2023-03-01T03:22:11;27.88;;;11.27;;
58083;SDS011;43882;51.550;11.858;2023-03-01T03:24:37;25.80;;;10.13;;
58083;SDS011;43882;51.550;11.858;2023-03-01T03:27:04;25.05;;;10.20;;
58083;SDS011;43882;51.550;11.858;2023-03-01T03:29:30;26.77;;;11.05;;
58083;SDS011;43882;51.550;11.858;2023-03-01T03:31:56;27.00;;;10.20;;
58083;SDS011;43882;51.550;11.858;2023-03-01T03:34:22;27.90;;;10.57;;
58083;SDS011;43882;51.550;11.858;2023-03-01T03:36:52;25.20;;;10.40;;
58083;SDS011;43882;51.550;11.858;2023-03-01T03:39:21;27.45;;;9.90;;
58083;SDS011;43882;51.550;11.858;2023-03-01T03:41:48;25.17;;;8.82;;
58083;SDS011;43882;51.550;11.858;2023-03-01T03:44:14;27.20;;;10.68;;
58083;SDS011;43882;51.550;11.858;2023-03-01T03:46:40;24.73;;;10.65;;
58083;SDS011;43882;51.550;11.858;2023-03-01T03:49:06;27.58;;;10.43;;
58083;SDS011;43882;51.550;11.858;2023-03-01T03:51:32;27.80;;;11.02;;
58083;SDS011;43882;51.550;11.858;2023-03-01T03:53:58;24.58;;;10.35;;
58083;SDS011;43882;51.550;11.858;2023-03-01T03:56:24;26.17;;;10.70;;
58083;SDS011;43882;51.550;11.858;2023-03-01T03:58:51;30.13;;;11.63;;
58083;SDS011;43882;51.550;11.858;2023-03-01T04:01:17;30.67;;;12.77;;
58083;SDS011;43882;51.550;11.858;2023-03-01T04:03:43;32.28;;;12.07;;
58083;SDS011;43882;51.550;11.858;2023-03-01T04:06:13;27.95;;;11.55;;
58083;SDS011;43882;51.550;11.858;2023-03-01T04:08:40;29.55;;;12.30;;
58083;SDS011;43882;51.550;11.858;2023-03-01T04:11:06;30.75;;;11.40;;
58083;SDS011;43882;51.550;11.858;2023-03-01T04:13:51;29.38;;;12.43;;
58083;SDS011;43882;51.550;11.858;2023-03-01T04:16:19;31.77;;;13.45;;
58083;SDS011;43882;51.550;11.858;2023-03-01T04:18:46;32.25;;;13.20;;
58083;SDS011;43882;51.550;11.858;2023-03-01T04:21:12;30.80;;;13.40;;
58083;SDS011;43882;51.550;11.858;2023-03-01T04:23:38;29.35;;;12.45;;
58083;SDS011;43882;51.550;11.858;2023-03-01T04:26:05;29.35;;;12.27;;
58083;SDS011;43882;51.550;11.858;2023-03-01T04:31:06;33.47;;;11.93;;
58083;SDS011;43882;51.550;11.858;2023-03-01T04:33:51;27.27;;;11.68;;
58083;SDS011;43882;51.550;11.858;2023-03-01T04:36:18;32.30;;;11.93;;
58083;SDS011;43882;51.550;11.858;2023-03-01T04:38:46;27.75;;;12.25;;
58083;SDS011;43882;51.550;11.858;2023-03-01T04:41:12;29.42;;;12.77;;
58083;SDS011;43882;51.550;11.858;2023-03-01T04:43:40;32.40;;;12.50;;
58083;SDS011;43882;51.550;11.858;2023-03-01T04:46:07;31.67;;;12.13;;
58083;SDS011;43882;51.550;11.858;2023-03-01T04:48:37;30.83;;;12.02;;
58083;SDS011;43882;51.550;11.858;2023-03-01T04:51:04;30.10;;;12.55;;
58083;SDS011;43882;51.550;11.858;2023-03-01T04:53:31;28.20;;;11.27;;
58083;SDS011;43882;51.550;11.858;2023-03-01T04:55:58;28.75;;;11.52;;
58083;SDS011;43882;51.550;11.858;2023-03-01T04:58:24;25.85;;;11.40;;
58083;SDS011;43882;51.550;11.858;2023-03-01T05:00:52;30.42;;;13.10;;
58083;SDS011;43882;51.550;11.858;2023-03-01T05:03:19;30.98;;;13.23;;
58083;SDS011;43882;51.550;11.858;2023-03-01T05:05:47;31.77;;;13.93;;
58083;SDS011;43882;51.550;11.858;2023-03-01T05:08:14;34.10;;;14.40;;
58083;SDS011;43882;51.550;11.858;2023-03-01T05:10:45;36.92;;;15.98;;
58083;SDS011;43882;51.550;11.858;2023-03-01T05:13:15;36.75;;;14.85;;
58083;SDS011;43882;51.550;11.858;2023-03-01T05:15:46;35.28;;;15.25;;
58083;SDS011;43882;51.550;11.858;2023-03-01T05:18:14;36.70;;;15.43;;
58083;SDS011;43882;51.550;11.858;2023-03-01T05:20:40;34.20;;;15.10;;
58083;SDS011;43882;51.550;11.858;2023-03-01T05:23:06;36.33;;;16.95;;
58083;SDS011;43882;51.550;11.858;2023-03-01T05:25:33;32.33;;;15.27;;
58083;SDS011;43882;51.550;11.858;2023-03-01T05:28:00;34.25;;;15.75;;
58083;SDS011;43882;51.550;11.858;2023-03-01T05:30:30;34.25;;;15.88;;
58083;SDS011;43882;51.550;11.858;2023-03-01T05:32:57;35.65;;;15.13;;
58083;SDS011;43882;51.550;11.858;2023-03-01T05:35:24;31.88;;;14.90;;
58083;SDS011;43882;51.550;11.858;2023-03-01T05:37:51;32.15;;;14.45;;
58083;SDS011;43882;51.550;11.858;2023-03-01T05:40:18;39.50;;;15.13;;
58083;SDS011;43882;51.550;11.858;2023-03-01T05:42:46;34.83;;;14.80;;
58083;SDS011;43882;51.550;11.858;2023-03-01T05:45:14;34.70;;;15.00;;
58083;SDS011;43882;51.550;11.858;2023-03-01T05:47:42;36.17;;;16.20;;
58083;SDS011;43882;51.550;11.858;2023-03-01T05:50:10;35.88;;;16.02;;
58083;SDS011;43882;51.550;11.858;2023-03-01T05:52:37;37.85;;;16.58;;
58083;SDS011;43882;51.550;11.858;2023-03-01T05:55:04;36.63;;;16.38;;
58083;SDS011;43882;51.550;11.858;2023-03-01T05:57:30;35.10;;;16.40;;
58083;SDS011;43882;51.550;11.858;2023-03-01T05:59:56;37.08;;;15.73;;
58083;SDS011;43882;51.550;11.858;2023-03-01T06:02:22;36.63;;;16.05;;
58083;SDS011;43882;51.550;11.858;2023-03-01T06:04:48;41.42;;;16.75;;
58083;SDS011;43882;51.550;11.858;2023-03-01T06:07:14;38.17;;;18.00;;
58083;SDS011;43882;51.550;11.858;2023-03-01T06:09:41;37.42;;;16.15;;
58083;SDS011;43882;51.550;11.858;2023-03-01T06:12:07;38.50;;;16.73;;
58083;SDS011;43882;51.550;11.858;2023-03-01T06:14:33;39.78;;;18.05;;
58083;SDS011;43882;51.550;11.858;2023-03-01T06:16:59;43.63;;;17.67;;
58083;SDS011;43882;51.550;11.858;2023-03-01T06:19:25;43.22;;;18.65;;
58083;SDS011;43882;51.550;11.858;2023-03-01T06:21:51;44.97;;;19.02;;
58083;SDS011;43882;51.550;11.858;2023-03-01T06:24:17;44.00;;;19.38;;
58083;SDS011;43882;51.550;11.858;2023-03-01T06:26:43;44.35;;;19.38;;
58083;SDS011;43882;51.550;11.858;2023-03-01T06:29:09;43.45;;;20.00;;
58083;SDS011;43882;51.550;11.858;2023-03-01T06:31:35;42.88;;;19.30;;
58083;SDS011;43882;51.550;11.858;2023-03-01T06:34:01;45.47;;;19.55;;
58083;SDS011;43882;51.550;11.858;2023-03-01T06:36:27;42.67;;;20.95;;
58083;SDS011;43882;51.550;11.858;2023-03-01T06:38:53;44.45;;;21.40;;
58083;SDS011;43882;51.550;11.858;2023-03-01T06:41:20;45.58;;;21.05;;
58083;SDS011;43882;51.550;11.858;2023-03-01T06:43:46;44.72;;;20.08;;
58083;SDS011;43882;51.550;11.858;2023-03-01T06:46:12;42.25;;;19.67;;
58083;SDS011;43882;51.550;11.858;2023-03-01T06:48:38;40.30;;;17.58;;
58083;SDS011;43882;51.550;11.858;2023-03-01T06:51:04;41.67;;;18.33;;
58083;SDS011;43882;51.550;11.858;2023-03-01T06:53:30;43.72;;;18.05;;
58083;SDS011;43882;51.550;11.858;2023-03-01T06:55:57;35.22;;;16.77;;
58083;SDS011;43882;51.550;11.858;2023-03-01T06:58:24;38.33;;;17.17;;
58083;SDS011;43882;51.550;11.858;2023-03-01T07:00:51;36.13;;;16.25;;
58083;SDS011;43882;51.550;11.858;2023-03-01T07:03:18;35.80;;;15.95;;
58083;SDS011;43882;51.550;11.858;2023-03-01T07:05:44;36.08;;;16.00;;
58083;SDS011;43882;51.550;11.858;2023-03-01T07:08:10;36.25;;;16.00;;
58083;SDS011;43882;51.550;11.858;2023-03-01T07:10:36;36.10;;;16.85;;
58083;SDS011;43882;51.550;11.858;2023-03-01T07:13:02;39.88;;;17.73;;
58083;SDS011;43882;51.550;11.858;2023-03-01T07:15:31;38.33;;;17.55;;
58083;SDS011;43882;51.550;11.858;2023-03-01T07:17:58;40.83;;;17.50;;
58083;SDS011;43882;51.550;11.858;2023-03-01T07:20:24;40.08;;;17.17;;
58083;SDS011;43882;51.550;11.858;2023-03-01T07:22:51;44.10;;;17.85;;
58083;SDS011;43882;51.550;11.858;2023-03-01T07:25:17;39.50;;;18.80;;
58083;SDS011;43882;51.550;11.858;2023-03-01T07:27:43;37.50;;;18.85;;
58083;SDS011;43882;51.550;11.858;2023-03-01T07:30:13;41.97;;;18.45;;
58083;SDS011;43882;51.550;11.858;2023-03-01T07:32:40;41.95;;;19.05;;
58083;SDS011;43882;51.550;11.858;2023-03-01T07:35:06;40.58;;;18.63;;
58083;SDS011;43882;51.550;11.858;2023-03-01T07:37:32;39.75;;;19.08;;
58083;SDS011;43882;51.550;11.858;2023-03-01T07:39:58;40.63;;;18.58;;
58083;SDS011;43882;51.550;11.858;2023-03-01T07:42:24;38.72;;;18.20;;
58083;SDS011;43882;51.550;11.858;2023-03-01T07:44:50;39.30;;;18.23;;
58083;SDS011;43882;51.550;11.858;2023-03-01T07:47:16;40.20;;;18.40;;
58083;SDS011;43882;51.550;11.858;2023-03-01T07:49:42;36.67;;;18.55;;
58083;SDS011;43882;51.550;11.858;2023-03-01T07:52:12;39.60;;;18.33;;
58083;SDS011;43882;51.550;11.858;2023-03-01T07:54:38;34.45;;;17.30;;
58083;SDS011;43882;51.550;11.858;2023-03-01T07:57:07;36.20;;;16.88;;
58083;SDS011;43882;51.550;11.858;2023-03-01T07:59:33;32.35;;;16.70;;
58083;SDS011;43882;51.550;11.858;2023-03-01T08:01:59;36.08;;;17.40;;
58083;SDS011;43882;51.550;11.858;2023-03-01T08:04:25;35.72;;;17.67;;
58083;SDS011;43882;51.550;11.858;2023-03-01T08:06:51;36.42;;;16.77;;
58083;SDS011;43882;51.550;11.858;2023-03-01T08:09:18;34.33;;;16.65;;
58083;SDS011;43882;51.550;11.858;2023-03-01T08:11:44;33.50;;;15.70;;
58083;SDS011;43882;51.550;11.858;2023-03-01T08:14:10;31.23;;;14.02;;
58083;SDS011;43882;51.550;11.858;2023-03-01T08:16:36;32.40;;;14.23;;
58083;SDS011;43882;51.550;11.858;2023-03-01T08:19:03;30.52;;;13.48;;
58083;SDS011;43882;51.550;11.858;2023-03-01T08:21:30;29.50;;;13.48;;
58083;SDS011;43882;51.550;11.858;2023-03-01T08:23:57;28.35;;;13.70;;
58083;SDS011;43882;51.550;11.858;2023-03-01T08:26:23;29.05;;;13.95;;
58083;SDS011;43882;51.550;11.858;2023-03-01T08:28:49;27.70;;;12.07;;
58083;SDS011;43882;51.550;11.858;2023-03-01T08:31:19;27.85;;;11.75;;
58083;SDS011;43882;51.550;11.858;2023-03-01T08:33:47;27.08;;;12.50;;
58083;SDS011;43882;51.550;11.858;2023-03-01T08:36:20;27.13;;;12.02;;
58083;SDS011;43882;51.550;11.858;2023-03-01T08:38:51;23.65;;;11.25;;
58083;SDS011;43882;51.550;11.858;2023-03-01T08:41:17;25.55;;;11.25;;
58083;SDS011;43882;51.550;11.858;2023-03-01T08:43:44;27.10;;;11.30;;
58083;SDS011;43882;51.550;11.858;2023-03-01T08:46:10;25.52;;;11.18;;
58083;SDS011;43882;51.550;11.858;2023-03-01T08:48:37;25.38;;;10.95;;
58083;SDS011;43882;51.550;11.858;2023-03-01T08:53:36;22.23;;;10.65;;
58083;SDS011;43882;51.550;11.858;2023-03-01T08:56:02;23.20;;;10.43;;
58083;SDS011;43882;51.550;11.858;2023-03-01T08:58:29;31.30;;;12.27;;
58083;SDS011;43882;51.550;11.858;2023-03-01T09:00:55;22.67;;;10.82;;
58083;SDS011;43882;51.550;11.858;2023-03-01T09:03:24;24.42;;;10.63;;
58083;SDS011;43882;51.550;11.858;2023-03-01T09:05:51;24.20;;;10.63;;
58083;SDS011;43882;51.550;11.858;2023-03-01T09:08:18;23.33;;;10.23;;
58083;SDS011;43882;51.550;11.858;2023-03-01T09:10:44;26.40;;;11.63;;
58083;SDS011;43882;51.550;11.858;2023-03-01T09:13:10;25.98;;;11.27;;
58083;SDS011;43882;51.550;11.858;2023-03-01T09:15:37;24.00;;;10.65;;
58083;SDS011;43882;51.550;11.858;2023-03-01T09:18:03;31.52;;;11.85;;
58083;SDS011;43882;51.550;11.858;2023-03-01T09:20:30;23.48;;;9.90;;
58083;SDS011;43882;51.550;11.858;2023-03-01T09:22:57;23.25;;;9.80;;
58083;SDS011;43882;51.550;11.858;2023-03-01T09:25:23;27.05;;;10.13;;
58083;SDS011;43882;51.550;11.858;2023-03-01T09:27:52;22.60;;;8.98;;
58083;SDS011;43882;51.550;11.858;2023-03-01T09:30:18;24.98;;;9.27;;
58083;SDS011;43882;51.550;11.858;2023-03-01T09:32:45;23.92;;;9.70;;
58083;SDS011;43882;51.550;11.858;2023-03-01T09:35:11;23.27;;;9.15;;
58083;SDS011;43882;51.550;11.858;2023-03-01T09:37:38;23.98;;;9.27;;
58083;SDS011;43882;51.550;11.858;2023-03-01T09:40:09;26.38;;;9.90;;
58083;SDS011;43882;51.550;11.858;2023-03-01T09:42:45;23.92;;;10.85;;
58083;SDS011;43882;51.550;11.858;2023-03-01T09:45:29;23.25;;;8.90;;
58083;SDS011;43882;51.550;11.858;2023-03-01T09:47:58;25.42;;;10.13;;
58083;SDS011;43882;51.550;11.858;2023-03-01T09:50:26;23.98;;;11.00;;
58083;SDS011;43882;51.550;11.858;2023-03-01T10:06:31;24.85;;;10.35;;
58083;SDS011;43882;51.550;11.858;2023-03-01T10:09:10;25.42;;;10.07;;
58083;SDS011;43882;51.550;11.858;2023-03-01T10:11:42;23.10;;;9.93;;
58083;SDS011;43882;51.550;11.858;2023-03-01T10:14:19;23.80;;;10.80;;
58083;SDS011;43882;51.550;11.858;2023-03-01T10:17:04;32.45;;;11.63;;
58083;SDS011;43882;51.550;11.858;2023-03-01T10:19:41;26.15;;;10.93;;
58083;SDS011;43882;51.550;11.858;2023-03-01T10:22:15;25.10;;;10.20;;
58083;SDS011;43882;51.550;11.858;2023-03-01T10:24:49;23.23;;;9.07;;
58083;SDS011;43882;51.550;11.858;2023-03-01T10:29:55;25.08;;;9.88;;
58083;SDS011;43882;51.550;11.858;2023-03-01T10:32:27;23.55;;;10.02;;
58083;SDS011;43882;51.550;11.858;2023-03-01T10:34:54;24.23;;;9.88;;
58083;SDS011;43882;51.550;11.858;2023-03-01T10:37:22;25.80;;;10.65;;
58083;SDS011;43882;51.550;11.858;2023-03-01T10:42:36;22.25;;;8.82;;
58083;SDS011;43882;51.550;11.858;2023-03-01T10:50:38;24.92;;;9.40;;
58083;SDS011;43882;51.550;11.858;2023-03-01T10:53:09;23.23;;;9.30;;
58083;SDS011;43882;51.550;11.858;2023-03-01T10:56:13;23.35;;;9.13;;
58083;SDS011;43882;51.550;11.858;2023-03-01T10:58:41;23.10;;;9.95;;
58083;SDS011;43882;51.550;11.858;2023-03-01T11:01:29;24.75;;;9.98;;
58083;SDS011;43882;51.550;11.858;2023-03-01T11:04:10;22.65;;;9.50;;
58083;SDS011;43882;51.550;11.858;2023-03-01T11:06:38;22.83;;;9.32;;
58083;SDS011;43882;51.550;11.858;2023-03-01T11:11:43;22.70;;;9.32;;
58083;SDS011;43882;51.550;11.858;2023-03-01T11:14:17;24.17;;;10.00;;
58083;SDS011;43882;51.550;11.858;2023-03-01T11:16:47;22.92;;;9.60;;
58083;SDS011;43882;51.550;11.858;2023-03-01T11:19:22;22.50;;;9.50;;
58083;SDS011;43882;51.550;11.858;2023-03-01T11:22:02;23.48;;;8.93;;
58083;SDS011;43882;51.550;11.858;2023-03-01T11:27:00;19.67;;;9.00;;
58083;SDS011;43882;51.550;11.858;2023-03-01T11:29:37;22.20;;;8.82;;
58083;SDS011;43882;51.550;11.858;2023-03-01T11:32:07;20.70;;;8.32;;
58083;SDS011;43882;51.550;11.858;2023-03-01T11:37:09;21.02;;;8.57;;
58083;SDS011;43882;51.550;11.858;2023-03-01T11:39:47;21.08;;;7.90;;
58083;SDS011;43882;51.550;11.858;2023-03-01T11:42:20;21.17;;;7.90;;
58083;SDS011;43882;51.550;11.858;2023-03-01T11:45:09;20.83;;;8.02;;
58083;SDS011;43882;51.550;11.858;2023-03-01T11:47:55;22.23;;;8.20;;
58083;SDS011;43882;51.550;11.858;2023-03-01T11:55:46;20.90;;;7.55;;
58083;SDS011;43882;51.550;11.858;2023-03-01T11:58:23;19.90;;;7.57;;
58083;SDS011;43882;51.550;11.858;2023-03-01T12:01:03;20.25;;;7.93;;
58083;SDS011;43882;51.550;11.858;2023-03-01T12:06:44;17.90;;;7.20;;
58083;SDS011;43882;51.550;11.858;2023-03-01T12:11:52;21.85;;;7.40;;
58083;SDS011;43882;51.550;11.858;2023-03-01T12:14:45;20.92;;;7.05;;
58083;SDS011;43882;51.550;11.858;2023-03-01T12:17:22;19.20;;;6.60;;
58083;SDS011;43882;51.550;11.858;2023-03-01T12:20:10;18.70;;;6.57;;
58083;SDS011;43882;51.550;11.858;2023-03-01T12:25:41;18.48;;;6.72;;
58083;SDS011;43882;51.550;11.858;2023-03-01T12:30:53;20.42;;;6.90;;
58083;SDS011;43882;51.550;11.858;2023-03-01T12:36:08;19.23;;;6.10;;
58083;SDS011;43882;51.550;11.858;2023-03-01T12:38:59;19.02;;;6.63;;
58083;SDS011;43882;51.550;11.858;2023-03-01T12:47:16;17.33;;;6.32;;
58083;SDS011;43882;51.550;11.858;2023-03-01T12:49:56;20.42;;;6.78;;
58083;SDS011;43882;51.550;11.858;2023-03-01T12:52:44;17.17;;;5.57;;
58083;SDS011;43882;51.550;11.858;2023-03-01T12:58:09;17.45;;;5.90;;
58083;SDS011;43882;51.550;11.858;2023-03-01T13:03:20;25.58;;;6.50;;
58083;SDS011;43882;51.550;11.858;2023-03-01T13:06:34;18.45;;;5.80;;
58083;SDS011;43882;51.550;11.858;2023-03-01T13:09:04;16.40;;;5.55;;
58083;SDS011;43882;51.550;11.858;2023-03-01T13:11:41;18.77;;;6.28;;
58083;SDS011;43882;51.550;11.858;2023-03-01T13:16:46;17.52;;;5.68;;
58083;SDS011;43882;51.550;11.858;2023-03-01T13:21:47;20.42;;;5.80;;
58083;SDS011;43882;51.550;11.858;2023-03-01T13:29:49;18.92;;;6.18;;
58083;SDS011;43882;51.550;11.858;2023-03-01T13:37:40;18.88;;;5.90;;
58083;SDS011;43882;51.550;11.858;2023-03-01T13:42:46;18.63;;;5.40;;
58083;SDS011;43882;51.550;11.858;2023-03-01T13:45:16;17.67;;;5.78;;
58083;SDS011;43882;51.550;11.858;2023-03-01T13:50:21;15.98;;;4.78;;
58083;SDS011;43882;51.550;11.858;2023-03-01T13:52:59;18.27;;;5.38;;
58083;SDS011;43882;51.550;11.858;2023-03-01T13:55:30;18.23;;;5.85;;
58083;SDS011;43882;51.550;11.858;2023-03-01T13:58:04;17.70;;;5.55;;
58083;SDS011;43882;51.550;11.858;2023-03-01T14:03:22;15.93;;;4.95;;
58083;SDS011;43882;51.550;11.858;2023-03-01T14:08:31;16.02;;;5.35;;
58083;SDS011;43882;51.550;11.858;2023-03-01T14:14:04;17.15;;;5.15;;
58083;SDS011;43882;51.550;11.858;2023-03-01T14:16:50;17.25;;;5.15;;
58083;SDS011;43882;51.550;11.858;2023-03-01T14:19:43;16.25;;;5.40;;
58083;SDS011;43882;51.550;11.858;2023-03-01T14:24:50;18.17;;;5.70;;
58083;SDS011;43882;51.550;11.858;2023-03-01T14:27:20;16.08;;;4.93;;
58083;SDS011;43882;51.550;11.858;2023-03-01T14:30:09;18.10;;;5.72;;
58083;SDS011;43882;51.550;11.858;2023-03-01T14:32:42;20.85;;;5.50;;
58083;SDS011;43882;51.550;11.858;2023-03-01T14:35:24;17.73;;;5.45;;
58083;SDS011;43882;51.550;11.858;2023-03-01T14:37:52;15.80;;;5.45;;
58083;SDS011;43882;51.550;11.858;2023-03-01T14:40:23;16.63;;;5.25;;
58083;SDS011;43882;51.550;11.858;2023-03-01T14:42:51;22.08;;;5.57;;
58083;SDS011;43882;51.550;11.858;2023-03-01T14:45:17;23.52;;;5.95;;
58083;SDS011;43882;51.550;11.858;2023-03-01T14:47:44;19.15;;;5.68;;
58083;SDS011;43882;51.550;11.858;2023-03-01T14:50:20;18.45;;;4.80;;
58083;SDS011;43882;51.550;11.858;2023-03-01T14:52:53;17.35;;;5.88;;
58083;SDS011;43882;51.550;11.858;2023-03-01T14:55:21;15.55;;;5.03;;
58083;SDS011;43882;51.550;11.858;2023-03-01T14:57:58;18.27;;;5.50;;
58083;SDS011;43882;51.550;11.858;2023-03-01T15:00:28;16.63;;;5.43;;
58083;SDS011;43882;51.550;11.858;2023-03-01T15:02:56;17.00;;;4.95;;
58083;SDS011;43882;51.550;11.858;2023-03-01T15:05:38;15.05;;;4.60;;
58083;SDS011;43882;51.550;11.858;2023-03-01T15:08:05;15.88;;;4.97;;
58083;SDS011;43882;51.550;11.858;2023-03-01T15:10:32;20.15;;;5.07;;
58083;SDS011;43882;51.550;11.858;2023-03-01T15:18:30;16.08;;;5.00;;
58083;SDS011;43882;51.550;11.858;2023-03-01T15:21:04;16.55;;;5.25;;
58083;SDS011;43882;51.550;11.858;2023-03-01T15:23:32;16.65;;;5.43;;
58083;SDS011;43882;51.550;11.858;2023-03-01T15:25:58;16.67;;;5.22;;
58083;SDS011;43882;51.550;11.858;2023-03-01T15:28:29;16.52;;;5.47;;
58083;SDS011;43882;51.550;11.858;2023-03-01T15:31:21;17.23;;;5.70;;
58083;SDS011;43882;51.550;11.858;2023-03-01T15:33:48;16.92;;;5.50;;
58083;SDS011;43882;51.550;11.858;2023-03-01T15:39:04;17.40;;;5.57;;
58083;SDS011;43882;51.550;11.858;2023-03-01T15:41:32;17.23;;;5.63;;
58083;SDS011;43882;51.550;11.858;2023-03-01T15:44:14;18.90;;;5.93;;
58083;SDS011;43882;51.550;11.858;2023-03-01T15:46:44;19.55;;;5.57;;
58083;SDS011;43882;51.550;11.858;2023-03-01T15:49:33;16.35;;;5.55;;
58083;SDS011;43882;51.550;11.858;2023-03-01T15:52:05;17.92;;;6.13;;
58083;SDS011;43882;51.550;11.858;2023-03-01T15:54:36;17.17;;;6.00;;
58083;SDS011;43882;51.550;11.858;2023-03-01T15:57:08;18.58;;;6.45;;
58083;SDS011;43882;51.550;11.858;2023-03-01T15:59:39;20.02;;;5.97;;
58083;SDS011;43882;51.550;11.858;2023-03-01T16:02:10;16.63;;;5.60;;
58083;SDS011;43882;51.550;11.858;2023-03-01T16:07:05;19.00;;;6.05;;
58083;SDS011;43882;51.550;11.858;2023-03-01T16:09:34;19.73;;;6.13;;
58083;SDS011;43882;51.550;11.858;2023-03-01T16:12:00;18.55;;;6.35;;
58083;SDS011;43882;51.550;11.858;2023-03-01T16:14:26;18.33;;;5.95;;
58083;SDS011;43882;51.550;11.858;2023-03-01T16:16:52;16.58;;;5.55;;
58083;SDS011;43882;51.550;11.858;2023-03-01T16:19:18;18.40;;;5.88;;
58083;SDS011;43882;51.550;11.858;2023-03-01T16:21:45;18.42;;;5.32;;
58083;SDS011;43882;51.550;11.858;2023-03-01T16:24:12;17.88;;;5.82;;
58083;SDS011;43882;51.550;11.858;2023-03-01T16:26:38;18.23;;;6.00;;
58083;SDS011;43882;51.550;11.858;2023-03-01T16:29:04;16.25;;;5.20;;
58083;SDS011;43882;51.550;11.858;2023-03-01T16:31:30;18.20;;;5.88;;